createdAt,value
2023-03-06T00:00:27.447Z,95162.00
2023-03-06T00:02:54.062Z,95158.22
2023-03-06T00:05:20.591Z,95154.22
2023-03-06T00:07:47.493Z,95156.63
2023-03-06T00:10:15.861Z,95150.75
2023-03-06T00:12:42.713Z,95151.91
2023-03-06T00:15:10.570Z,95148.50
2023-03-06T00:17:37.221Z,95145.25
2023-03-06T00:20:05.776Z,95142.09
2023-03-06T00:22:33.292Z,95142.56
2023-03-06T00:24:59.869Z,95143.56
2023-03-06T00:27:26.376Z,95129.66
2023-03-06T00:29:58.293Z,95136.63
2023-03-06T00:32:26.181Z,95132.22
2023-03-06T00:34:53.634Z,95116.06
2023-03-06T00:37:22.327Z,95116.16
2023-03-06T00:39:52.215Z,95106.41
2023-03-06T00:42:19.641Z,95101.84
2023-03-06T00:44:46.852Z,95103.78
2023-03-06T00:47:13.682Z,95099.09
2023-03-06T00:49:40.089Z,95097.78
2023-03-06T00:52:06.905Z,95097.34
2023-03-06T00:54:33.650Z,95092.56
2023-03-06T00:57:00.110Z,95087.97
2023-03-06T00:59:27.693Z,95088.25
2023-03-06T01:01:55.123Z,95097.00
2023-03-06T01:04:22.092Z,95085.09
2023-03-06T01:06:49.008Z,95078.25
2023-03-06T01:09:15.767Z,95077.38
2023-03-06T01:11:42.557Z,95081.69
2023-03-06T01:14:08.997Z,95061.06
2023-03-06T01:16:35.989Z,95059.16
2023-03-06T01:19:03.055Z,95059.06
2023-03-06T01:21:29.485Z,95054.22
2023-03-06T01:23:55.898Z,95047.97
2023-03-06T01:26:22.693Z,95043.28
2023-03-06T01:28:49.134Z,95045.75
2023-03-06T01:31:15.596Z,95028.78
2023-03-06T01:33:42.411Z,95024.19
2023-03-06T01:36:12.099Z,95021.16
2023-03-06T01:38:38.619Z,95022.13
2023-03-06T01:41:06.926Z,95016.25
2023-03-06T01:43:36.219Z,95014.75
2023-03-06T01:46:42.565Z,95024.00
2023-03-06T01:49:12.816Z,95007.34
2023-03-06T01:51:44.974Z,95006.88
2023-03-06T01:54:35.462Z,94989.78
2023-03-06T01:57:22.774Z,94993.56
2023-03-06T01:59:55.707Z,94990.50
2023-03-06T02:02:22.886Z,94989.69
2023-03-06T02:04:49.499Z,95001.06
2023-03-06T02:07:19.686Z,94999.44
2023-03-06T02:09:46.287Z,94995.91
2023-03-06T02:12:16.467Z,94999.59
2023-03-06T02:14:43.512Z,94982.31
2023-03-06T02:17:12.213Z,94986.28
2023-03-06T02:20:04.467Z,94984.19
2023-03-06T02:22:54.242Z,94967.91
2023-03-06T02:25:31.779Z,94967.34
2023-03-06T02:27:58.988Z,94965.28
2023-03-06T02:30:27.127Z,94968.44
2023-03-06T02:32:53.734Z,94967.63
2023-03-06T02:35:29.160Z,94962.13
2023-03-06T02:37:57.593Z,94958.09
2023-03-06T02:40:24.844Z,94959.44
2023-03-06T02:42:56.806Z,94943.78
2023-03-06T02:45:34.061Z,94934.69
2023-03-06T02:48:00.860Z,94946.31
2023-03-06T02:50:27.392Z,94941.63
2023-03-06T02:52:54.158Z,94942.25
2023-03-06T02:55:21.049Z,94935.13
2023-03-06T02:57:48.092Z,94933.44
2023-03-06T03:00:15.349Z,94934.78
2023-03-06T03:02:42.071Z,94934.31
2023-03-06T03:05:09.292Z,94932.72
2023-03-06T03:07:35.941Z,94934.84
2023-03-06T03:10:03.049Z,94932.44
2023-03-06T03:12:29.859Z,94926.03
2023-03-06T03:14:56.575Z,94929.81
2023-03-06T03:17:23.596Z,94931.16
2023-03-06T03:19:51.000Z,94921.34
2023-03-06T03:22:18.185Z,94927.19
2023-03-06T03:24:44.622Z,94929.59
2023-03-06T03:27:11.618Z,94930.53
2023-03-06T03:29:38.184Z,94923.44
2023-03-06T03:32:04.997Z,94922.28
2023-03-06T03:34:31.700Z,94911.81
2023-03-06T03:36:58.094Z,94920.72
2023-03-06T03:39:25.142Z,94917.41
2023-03-06T03:41:51.608Z,94921.97
2023-03-06T03:44:18.409Z,94920.66
2023-03-06T03:46:44.902Z,94897.84
2023-03-06T03:49:12.858Z,94899.66
2023-03-06T03:51:39.725Z,94909.31
2023-03-06T03:54:06.773Z,94908.75
2023-03-06T03:56:33.786Z,94901.00
2023-03-06T03:59:00.937Z,94903.63
2023-03-06T04:01:27.421Z,94897.41
2023-03-06T04:03:53.952Z,94898.66
2023-03-06T04:06:20.718Z,94886.78
2023-03-06T04:08:47.577Z,94882.25
2023-03-06T04:11:13.999Z,94882.25
2023-03-06T04:13:40.502Z,94884.44
2023-03-06T04:16:07.694Z,94873.00
2023-03-06T04:18:34.831Z,94878.50
2023-03-06T04:21:01.246Z,94869.16
2023-03-06T04:23:27.901Z,94870.75
2023-03-06T04:25:55.141Z,94874.91
2023-03-06T04:28:21.740Z,94874.03
2023-03-06T04:30:48.187Z,94864.47
2023-03-06T04:33:15.137Z,94869.34
2023-03-06T04:35:41.643Z,94868.34
2023-03-06T04:38:08.548Z,94875.09
2023-03-06T04:40:37.667Z,94867.63
2023-03-06T04:43:05.554Z,94869.22
2023-03-06T04:45:34.349Z,94870.47
2023-03-06T04:48:01.445Z,94869.41
2023-03-06T04:50:32.288Z,94862.13
2023-03-06T04:53:01.119Z,94873.38
2023-03-06T04:55:28.497Z,94853.66
2023-03-06T04:57:55.542Z,94857.09
2023-03-06T05:00:25.195Z,94856.25
2023-03-06T05:02:52.468Z,94851.03
2023-03-06T05:05:18.980Z,94846.28
2023-03-06T05:07:45.858Z,94846.72
2023-03-06T05:10:14.951Z,94843.22
2023-03-06T05:12:41.647Z,94844.38
2023-03-06T05:15:10.264Z,94844.03
2023-03-06T05:17:37.408Z,94830.81
2023-03-06T05:20:10.001Z,94841.53
2023-03-06T05:22:37.187Z,94851.31
2023-03-06T05:25:04.913Z,94833.03
2023-03-06T05:27:31.477Z,94845.56
2023-03-06T05:29:58.446Z,94837.28
2023-03-06T05:32:24.944Z,94840.72
2023-03-06T05:34:51.731Z,94837.47
2023-03-06T05:37:18.545Z,94844.31
2023-03-06T05:39:45.293Z,94846.75
2023-03-06T05:42:11.736Z,94821.63
2023-03-06T05:44:38.574Z,94834.78
2023-03-06T05:47:05.610Z,94845.03
2023-03-06T05:49:34.763Z,94838.38
2023-03-06T05:52:04.392Z,94836.66
2023-03-06T05:54:32.845Z,94839.97
2023-03-06T05:56:59.884Z,94842.50
2023-03-06T05:59:28.558Z,94840.78
2023-03-06T06:01:56.270Z,94848.00
2023-03-06T06:04:24.607Z,94842.22
2023-03-06T06:06:53.647Z,94845.00
2023-03-06T06:09:21.339Z,94848.09
2023-03-06T06:11:51.398Z,94841.97
2023-03-06T06:14:18.266Z,94842.75
2023-03-06T06:16:44.832Z,94838.75
2023-03-06T06:19:18.706Z,94839.03
2023-03-06T06:21:47.728Z,94837.50
2023-03-06T06:24:16.064Z,94829.81
2023-03-06T06:26:43.430Z,94824.25
2023-03-06T06:29:10.883Z,94827.22
2023-03-06T06:31:37.609Z,94829.53
2023-03-06T06:34:06.686Z,94828.09
2023-03-06T06:36:34.004Z,94824.66
2023-03-06T06:39:01.259Z,94824.75
2023-03-06T06:41:50.740Z,94824.13
2023-03-06T06:44:16.557Z,94819.34
2023-03-06T06:49:32.820Z,94818.34
2023-03-06T06:52:00.009Z,94824.44
2023-03-06T06:54:26.781Z,94822.28
2023-03-06T06:56:56.654Z,94819.00
2023-03-06T06:59:23.785Z,94819.53
2023-03-06T07:01:51.257Z,94817.72
2023-03-06T07:04:19.642Z,94818.28
2023-03-06T07:06:46.481Z,94818.81
2023-03-06T07:09:13.216Z,94820.16
2023-03-06T07:11:41.078Z,94815.44
2023-03-06T07:14:07.787Z,94809.06
2023-03-06T07:16:34.397Z,94810.34
2023-03-06T07:19:01.219Z,94807.69
2023-03-06T07:21:27.686Z,94804.41
2023-03-06T07:23:57.203Z,94797.88
2023-03-06T07:26:28.104Z,94792.66
2023-03-06T07:28:55.357Z,94797.50
2023-03-06T07:31:24.919Z,94786.06
2023-03-06T07:33:52.390Z,94787.78
2023-03-06T07:36:19.383Z,94789.19
2023-03-06T07:38:46.275Z,94785.72
2023-03-06T07:41:13.529Z,94786.44
2023-03-06T07:43:41.671Z,94775.69
2023-03-06T07:46:09.031Z,94791.50
2023-03-06T07:48:36.707Z,94800.09
2023-03-06T07:51:09.535Z,94803.94
2023-03-06T07:53:36.338Z,94799.94
2023-03-06T07:56:08.793Z,94798.47
2023-03-06T07:58:36.779Z,94786.56
2023-03-06T08:01:05.326Z,94792.91
2023-03-06T08:03:32.414Z,94797.38
2023-03-06T08:06:11.262Z,94790.31
2023-03-06T08:08:39.584Z,94784.22
2023-03-06T08:11:12.015Z,94794.69
2023-03-06T08:13:39.208Z,94788.50
2023-03-06T08:16:06.422Z,94788.16
2023-03-06T08:18:33.287Z,94789.75
2023-03-06T08:21:29.973Z,94795.44
2023-03-06T08:23:57.092Z,94790.06
2023-03-06T08:26:27.376Z,94787.81
2023-03-06T08:28:55.949Z,94788.63
2023-03-06T08:31:27.529Z,94785.34
2023-03-06T08:33:55.101Z,94786.00
2023-03-06T08:36:21.795Z,94786.06
2023-03-06T08:38:48.576Z,94779.41
2023-03-06T08:41:15.786Z,94789.06
2023-03-06T08:43:42.568Z,94778.19
2023-03-06T08:46:10.920Z,94785.59
2023-03-06T08:48:38.224Z,94789.88
2023-03-06T08:51:05.289Z,94790.53
2023-03-06T08:53:42.684Z,94793.56
2023-03-06T08:56:26.520Z,94798.81
2023-03-06T08:58:54.250Z,94796.53
2023-03-06T09:01:27.106Z,94803.97
2023-03-06T09:03:56.280Z,94810.09
2023-03-06T09:06:23.157Z,94808.84
2023-03-06T09:08:54.101Z,94813.31
2023-03-06T09:11:22.747Z,94820.59
2023-03-06T09:13:49.192Z,94820.97
2023-03-06T09:16:15.945Z,94826.66
2023-03-06T09:18:42.737Z,94823.78
2023-03-06T09:21:10.272Z,94831.47
2023-03-06T09:23:39.410Z,94831.06
2023-03-06T09:26:07.960Z,94837.13
2023-03-06T09:28:39.368Z,94839.00
2023-03-06T09:31:11.061Z,94837.66
2023-03-06T09:33:38.553Z,94848.81
2023-03-06T09:36:06.265Z,94853.22
2023-03-06T09:38:33.194Z,94851.63
2023-03-06T09:41:04.011Z,94851.69
2023-03-06T09:43:35.582Z,94845.66
2023-03-06T09:46:16.867Z,94848.88
2023-03-06T09:48:55.473Z,94847.38
2023-03-06T09:51:33.396Z,94848.38
2023-03-06T09:54:24.694Z,94860.06
2023-03-06T09:56:51.504Z,94851.56
2023-03-06T09:59:24.415Z,94855.63
2023-03-06T10:02:17.522Z,94856.03
2023-03-06T10:04:50.032Z,94851.44
2023-03-06T10:07:28.244Z,94852.63
2023-03-06T10:10:02.406Z,94858.19
2023-03-06T10:12:35.169Z,94853.53
2023-03-06T10:15:14.256Z,94832.88
2023-03-06T10:17:42.546Z,94840.22
2023-03-06T10:20:42.317Z,94861.22
2023-03-06T10:23:42.420Z,94876.66
2023-03-06T10:26:16.909Z,94879.91
2023-03-06T10:28:54.560Z,94858.81
2023-03-06T10:31:26.766Z,94861.63
2023-03-06T10:34:08.418Z,94867.06
2023-03-06T10:36:36.044Z,94850.66
2023-03-06T10:39:09.501Z,94870.69
2023-03-06T10:41:36.933Z,94874.97
2023-03-06T10:44:03.683Z,94879.94
2023-03-06T10:46:39.552Z,94881.25
2023-03-06T10:49:23.783Z,94887.69
2023-03-06T10:51:59.431Z,94898.69
2023-03-06T10:54:26.914Z,94899.16
2023-03-06T10:56:53.525Z,94922.03
2023-03-06T10:59:28.743Z,94923.03
2023-03-06T11:01:58.174Z,94920.25
2023-03-06T11:04:35.691Z,94925.38
2023-03-06T11:07:22.116Z,94915.84
2023-03-06T11:09:58.034Z,94925.16
2023-03-06T11:12:39.341Z,94925.88
2023-03-06T11:15:10.608Z,94907.34
2023-03-06T11:17:52.584Z,94901.34
2023-03-06T11:20:22.536Z,94897.63
2023-03-06T11:22:55.156Z,94909.88
2023-03-06T11:25:26.256Z,94896.47
2023-03-06T11:27:59.709Z,94886.22
2023-03-06T11:30:43.436Z,94886.34
2023-03-06T11:33:48.915Z,94878.31
2023-03-06T11:36:23.197Z,94876.09
2023-03-06T11:38:54.038Z,94876.09
2023-03-06T11:41:45.174Z,94873.44
2023-03-06T11:44:40.081Z,94867.22
2023-03-06T11:47:22.978Z,94885.00
2023-03-06T11:50:00.235Z,94866.06
2023-03-06T11:52:47.265Z,94856.53
2023-03-06T11:55:19.284Z,94849.91
2023-03-06T11:57:58.727Z,94834.56
2023-03-06T12:00:32.059Z,94835.97
2023-03-06T12:03:01.817Z,94837.56
2023-03-06T12:05:28.385Z,94833.34
2023-03-06T12:08:04.185Z,94839.59
2023-03-06T12:14:21.506Z,94823.03
2023-03-06T12:17:19.460Z,94830.59
2023-03-06T12:20:07.720Z,94818.81
2023-03-06T12:22:57.997Z,94825.78
2023-03-06T12:25:42.887Z,94826.41
2023-03-06T12:28:27.653Z,94824.72
2023-03-06T12:31:02.906Z,94831.06
2023-03-06T12:33:54.127Z,94823.97
2023-03-06T12:36:36.330Z,94818.28
2023-03-06T12:39:33.378Z,94816.88
2023-03-06T12:42:17.792Z,94822.31
2023-03-06T12:44:56.662Z,94817.69
2023-03-06T12:47:28.138Z,94822.28
2023-03-06T12:50:03.541Z,94824.13
2023-03-06T12:52:32.570Z,94833.50
2023-03-06T12:55:01.557Z,94828.69
2023-03-06T12:57:27.979Z,94836.78
2023-03-06T12:59:55.432Z,94827.88
2023-03-06T13:02:48.888Z,94819.00
2023-03-06T13:05:34.465Z,94813.72
2023-03-06T13:08:09.913Z,94820.38
2023-03-06T13:10:40.495Z,94815.75
2023-03-06T13:13:33.357Z,94808.88
2023-03-06T13:16:15.498Z,94809.09
2023-03-06T13:18:41.868Z,94810.94
2023-03-06T13:21:47.711Z,94810.53
2023-03-06T13:24:16.620Z,94810.50
2023-03-06T13:26:42.920Z,94801.78
2023-03-06T13:29:37.808Z,94808.28
2023-03-06T13:32:04.193Z,94797.56
2023-03-06T13:34:39.339Z,94792.69
2023-03-06T13:37:23.012Z,94788.66
2023-03-06T13:39:52.853Z,94794.22
2023-03-06T13:42:37.948Z,94786.56
2023-03-06T13:45:08.651Z,94781.22
2023-03-06T13:50:37.791Z,94769.03
2023-03-06T13:53:23.699Z,94779.00
2023-03-06T13:56:41.750Z,94779.97
2023-03-06T13:59:23.274Z,94763.25
2023-03-06T14:02:11.605Z,94765.88
2023-03-06T14:04:57.866Z,94772.75
2023-03-06T14:07:32.733Z,94777.03
2023-03-06T14:10:08.164Z,94783.84
2023-03-06T14:12:38.981Z,94787.84
2023-03-06T14:15:25.952Z,94784.81
2023-03-06T14:18:13.524Z,94781.59
2023-03-06T14:20:39.982Z,94774.47
2023-03-06T14:23:22.015Z,94776.19
2023-03-06T14:25:55.011Z,94766.78
2023-03-06T14:28:24.472Z,94778.31
2023-03-06T14:30:52.740Z,94763.00
2023-03-06T14:33:42.928Z,94763.28
2023-03-06T14:36:19.959Z,94775.78
2023-03-06T14:39:14.710Z,94766.53
2023-03-06T14:41:41.440Z,94769.16
2023-03-06T14:44:19.214Z,94775.13
2023-03-06T14:46:47.709Z,94779.28
2023-03-06T14:49:16.555Z,94776.50
2023-03-06T14:51:51.517Z,94777.69
2023-03-06T14:54:19.572Z,94785.72
2023-03-06T14:56:54.277Z,94776.44
2023-03-06T14:59:25.866Z,94789.97
2023-03-06T15:01:59.618Z,94787.75
2023-03-06T15:04:36.730Z,94790.56
2023-03-06T15:07:08.518Z,94787.84
2023-03-06T15:09:37.280Z,94780.03
2023-03-06T15:12:29.633Z,94783.16
2023-03-06T15:15:06.761Z,94773.75
2023-03-06T15:17:45.694Z,94779.22
2023-03-06T15:20:57.454Z,94779.69
2023-03-06T15:23:45.175Z,94771.22
2023-03-06T15:26:36.834Z,94776.31
2023-03-06T15:29:10.459Z,94778.50
2023-03-06T15:31:42.461Z,94788.00
2023-03-06T15:34:12.119Z,94796.56
2023-03-06T15:36:39.888Z,94794.75
2023-03-06T15:39:38.854Z,94796.03
2023-03-06T15:42:26.579Z,94799.47
2023-03-06T15:44:55.074Z,94795.19
2023-03-06T15:47:22.458Z,94793.31
2023-03-06T15:49:52.004Z,94783.28
2023-03-06T15:52:22.736Z,94795.84
2023-03-06T15:54:49.522Z,94800.31
2023-03-06T15:57:22.023Z,94803.16
2023-03-06T15:59:49.190Z,94802.75
2023-03-06T16:02:20.851Z,94790.34
2023-03-06T16:04:48.414Z,94785.91
2023-03-06T16:07:15.650Z,94786.28
2023-03-06T16:09:43.189Z,94779.63
2023-03-06T16:12:18.846Z,94779.63
2023-03-06T16:14:47.594Z,94785.28
2023-03-06T16:17:15.158Z,94769.72
2023-03-06T16:19:41.998Z,94779.03
2023-03-06T16:22:08.505Z,94771.94
2023-03-06T16:24:35.042Z,94775.41
2023-03-06T16:27:02.575Z,94766.53
2023-03-06T16:29:29.749Z,94774.19
2023-03-06T16:31:58.304Z,94775.41
2023-03-06T16:34:25.166Z,94770.34
2023-03-06T16:36:52.025Z,94775.41
2023-03-06T16:39:21.353Z,94773.81
2023-03-06T16:41:49.358Z,94780.66
2023-03-06T16:44:15.944Z,94783.28
2023-03-06T16:46:47.738Z,94777.44
2023-03-06T16:49:23.372Z,94780.47
2023-03-06T16:51:51.245Z,94784.69
2023-03-06T16:54:17.707Z,94771.78
2023-03-06T16:56:44.625Z,94785.50
2023-03-06T16:59:12.700Z,94775.63
2023-03-06T17:01:42.587Z,94784.69
2023-03-06T17:04:09.465Z,94783.06
2023-03-06T17:06:36.318Z,94795.78
2023-03-06T17:09:03.087Z,94798.41
2023-03-06T17:11:29.652Z,94795.34
2023-03-06T17:13:56.268Z,94797.16
2023-03-06T17:16:23.299Z,94805.84
2023-03-06T17:18:50.652Z,94812.50
2023-03-06T17:21:17.323Z,94810.91
2023-03-06T17:23:44.811Z,94807.88
2023-03-06T17:26:18.808Z,94812.94
2023-03-06T17:28:46.646Z,94812.50
2023-03-06T17:31:16.519Z,94812.91
2023-03-06T17:33:44.364Z,94812.72
2023-03-06T17:36:11.423Z,94823.97
2023-03-06T17:38:38.071Z,94829.03
2023-03-06T17:41:06.104Z,94823.59
2023-03-06T17:43:32.945Z,94834.31
2023-03-06T17:46:08.244Z,94826.66
2023-03-06T17:48:35.204Z,94829.88
2023-03-06T17:51:01.898Z,94830.69
2023-03-06T17:53:28.872Z,94833.28
2023-03-06T17:55:58.012Z,94831.91
2023-03-06T17:58:25.155Z,94834.09
2023-03-06T18:00:51.977Z,94842.16
2023-03-06T18:03:18.987Z,94842.53
2023-03-06T18:05:45.403Z,94850.41
2023-03-06T18:08:12.089Z,94843.97
2023-03-06T18:10:40.770Z,94841.34
2023-03-06T18:13:08.325Z,94844.78
2023-03-06T18:15:39.496Z,94833.47
2023-03-06T18:18:07.929Z,94840.94
2023-03-06T18:20:38.107Z,94848.00
2023-03-06T18:23:04.576Z,94848.84
2023-03-06T18:25:32.532Z,94850.84
2023-03-06T18:27:59.448Z,94849.41
2023-03-06T18:30:25.897Z,94853.22
2023-03-06T18:32:52.804Z,94849.19
2023-03-06T18:35:20.548Z,94848.13
2023-03-06T18:37:46.965Z,94840.91
2023-03-06T18:40:14.332Z,94845.75
2023-03-06T18:42:40.769Z,94839.06
2023-03-06T18:45:07.854Z,94838.03
2023-03-06T18:47:34.701Z,94846.94
2023-03-06T18:50:02.715Z,94851.13
2023-03-06T18:52:29.172Z,94855.16
2023-03-06T18:54:55.976Z,94848.91
2023-03-06T18:59:55.249Z,94855.34
2023-03-06T19:02:22.191Z,94853.56
2023-03-06T19:04:48.592Z,94854.19
2023-03-06T19:07:15.421Z,94847.16
2023-03-06T19:09:44.503Z,94850.94
2023-03-06T19:12:11.864Z,94851.47
2023-03-06T19:14:38.372Z,94854.75
2023-03-06T19:17:05.066Z,94850.25
2023-03-06T19:19:31.834Z,94854.91
2023-03-06T19:21:59.181Z,94856.31
2023-03-06T19:24:26.425Z,94865.81
2023-03-06T19:26:52.835Z,94864.81
2023-03-06T19:29:19.855Z,94867.25
2023-03-06T19:31:46.300Z,94867.78
2023-03-06T19:34:12.705Z,94861.19
2023-03-06T19:36:41.041Z,94867.63
2023-03-06T19:39:09.486Z,94860.56
2023-03-06T19:41:36.303Z,94863.16
2023-03-06T19:44:03.570Z,94859.75
2023-03-06T19:46:31.649Z,94860.34
2023-03-06T19:49:03.411Z,94852.03
2023-03-06T19:51:30.407Z,94844.41
2023-03-06T19:53:57.742Z,94843.81
2023-03-06T19:56:29.403Z,94850.25
2023-03-06T19:58:56.634Z,94850.88
2023-03-06T20:01:24.969Z,94846.88
2023-03-06T20:03:59.585Z,94844.47
2023-03-06T20:06:29.557Z,94854.84
2023-03-06T20:08:56.141Z,94854.66
2023-03-06T20:11:30.209Z,94863.31
2023-03-06T20:14:02.814Z,94873.25
2023-03-06T20:16:31.046Z,94870.28
2023-03-06T20:18:59.891Z,94878.13
2023-03-06T20:21:28.969Z,94880.91
2023-03-06T20:23:58.370Z,94883.94
2023-03-06T20:26:27.515Z,94877.16
2023-03-06T20:28:54.750Z,94867.31
2023-03-06T20:31:24.232Z,94863.56
2023-03-06T20:33:52.983Z,94872.34
2023-03-06T20:36:25.243Z,94877.69
2023-03-06T20:38:51.649Z,94883.09
2023-03-06T20:41:20.864Z,94884.34
2023-03-06T20:43:47.927Z,94883.38
2023-03-06T20:46:15.657Z,94892.00
2023-03-06T20:48:43.220Z,94889.94
2023-03-06T20:51:22.069Z,94893.00
2023-03-06T20:53:50.299Z,94896.03
2023-03-06T20:56:19.719Z,94882.97
2023-03-06T20:58:46.639Z,94873.81
2023-03-06T21:01:28.040Z,94883.28
2023-03-06T21:03:57.077Z,94871.66
2023-03-06T21:06:24.694Z,94869.81
2023-03-06T21:08:51.423Z,94865.91
2023-03-06T21:11:18.339Z,94858.34
2023-03-06T21:13:45.300Z,94866.91
2023-03-06T21:16:20.950Z,94863.84
2023-03-06T21:18:48.000Z,94864.47
2023-03-06T21:21:24.095Z,94864.16
2023-03-06T21:23:51.168Z,94873.47
2023-03-06T21:26:20.459Z,94866.91
2023-03-06T21:28:47.325Z,94856.97
2023-03-06T21:31:16.501Z,94855.72
2023-03-06T21:33:45.286Z,94857.22
2023-03-06T21:36:11.728Z,94853.00
2023-03-06T21:38:38.409Z,94848.41
2023-03-06T21:41:13.471Z,94844.03
2023-03-06T21:43:40.806Z,94848.28
2023-03-06T21:46:07.647Z,94839.59
2023-03-06T21:48:34.178Z,94842.44
2023-03-06T21:51:12.525Z,94836.97
2023-03-06T21:53:42.800Z,94839.38
2023-03-06T21:56:10.463Z,94833.94
2023-03-06T21:58:37.295Z,94833.47
2023-03-06T22:01:12.157Z,94827.19
2023-03-06T22:03:39.298Z,94837.66
2023-03-06T22:06:17.094Z,94835.97
2023-03-06T22:08:44.932Z,94833.13
2023-03-06T22:11:19.750Z,94847.16
2023-03-06T22:13:48.243Z,94831.69
2023-03-06T22:16:15.740Z,94833.31
2023-03-06T22:18:47.274Z,94835.38
2023-03-06T22:21:16.564Z,94825.75
2023-03-06T22:23:43.568Z,94822.78
2023-03-06T22:26:14.258Z,94814.56
2023-03-06T22:28:42.475Z,94822.00
2023-03-06T22:31:18.829Z,94818.66
2023-03-06T22:33:45.815Z,94802.97
2023-03-06T22:36:14.761Z,94808.81
2023-03-06T22:38:45.019Z,94802.81
2023-03-06T22:41:12.910Z,94805.97
2023-03-06T22:43:39.664Z,94807.91
2023-03-06T22:46:11.671Z,94803.09
2023-03-06T22:48:38.476Z,94798.47
2023-03-06T22:51:07.467Z,94798.69
2023-03-06T22:53:34.318Z,94793.81
2023-03-06T22:56:02.088Z,94802.31
2023-03-06T22:58:37.526Z,94790.63
2023-03-06T23:01:28.816Z,94791.03
2023-03-06T23:03:58.207Z,94790.63
2023-03-06T23:06:28.893Z,94797.50
2023-03-06T23:09:06.321Z,94785.41
2023-03-06T23:11:33.137Z,94788.41
2023-03-06T23:14:00.647Z,94778.56
2023-03-06T23:16:27.388Z,94778.56
2023-03-06T23:18:54.040Z,94774.94
2023-03-06T23:21:21.821Z,94785.03
2023-03-06T23:23:53.477Z,94781.19
2023-03-06T23:26:23.561Z,94772.34
2023-03-06T23:28:50.290Z,94779.41
2023-03-06T23:31:19.629Z,94774.34
2023-03-06T23:33:46.952Z,94776.56
2023-03-06T23:36:14.918Z,94780.38
2023-03-06T23:38:41.469Z,94783.44
2023-03-06T23:41:11.913Z,94777.81
2023-03-06T23:43:39.028Z,94770.38
2023-03-06T23:46:06.943Z,94763.31
2023-03-06T23:48:34.919Z,94759.25
2023-03-06T23:51:08.571Z,94770.53
2023-03-06T23:53:35.629Z,94762.06
2023-03-06T23:56:05.054Z,94755.66
2023-03-06T23:58:32.025Z,94756.03
